If you wish to contribute or participate in the discussions about articles you are invited to join SKYbrary as a registered user

 Actions

Weipa Airport

From SKYbrary Wiki

YBWP
Airport
ICAO: YBWP – IATA: WEI
Summary
Name Weipa Airport
Region Asia and Pacific
Territory "YB" is not in the list (AG, AN, AY, BG, BI, BK, C, CT, DA, DB, ...) of allowed values for the "ICAO Territory" property.
Location , Queensland
Serving Weipa
Elevation 19.202 m
63 ft
63 ft19.202 m
Type medium airport
Coordinates 12° 40' 43.00" S, 141° 55' 31.00" E
Runways
Designator Length Width Surface ROPS
12/30 1645 m5,396.982 ft
30 m98.425 ft
ASP /


METAR
Observation YBWP 200200Z AUTO 08013KT 070V130 9999 // NCD 34/16 Q1009
Station Weipa City
Date/Time 20 November 2019 02:00:00
Wind direction 80°
Wind speed 13 kts
Lowest cloud amount no clouds detected
Temperature 34°C
Dew point 16°C
Humidity 34%
QNH 1009 hPa
Weather condition n/a